sensor_id;sensor_type;location;lat;lon;timestamp;pressure;altitude;pressure_sealevel;temperature;humidity
5691;BME280;2870;42.680;23.364;2023-04-05T00:01:03;94645.56;;;2.24;93.32
5691;BME280;2870;42.680;23.364;2023-04-05T00:03:32;94649.75;;;2.06;93.03
5691;BME280;2870;42.680;23.364;2023-04-05T00:05:59;94639.38;;;2.42;92.03
5691;BME280;2870;42.680;23.364;2023-04-05T00:08:28;94632.66;;;2.32;93.47
5691;BME280;2870;42.680;23.364;2023-04-05T00:10:55;94642.28;;;2.25;93.32
5691;BME280;2870;42.680;23.364;2023-04-05T00:13:22;94634.38;;;2.10;91.50
5691;BME280;2870;42.680;23.364;2023-04-05T00:15:50;94637.19;;;2.35;90.83
5691;BME280;2870;42.680;23.364;2023-04-05T00:18:17;94635.38;;;2.37;91.43
5691;BME280;2870;42.680;23.364;2023-04-05T00:20:48;94634.97;;;2.28;90.39
5691;BME280;2870;42.680;23.364;2023-04-05T00:23:15;94627.78;;;2.44;92.04
5691;BME280;2870;42.680;23.364;2023-04-05T00:25:44;94634.31;;;1.86;92.23
5691;BME280;2870;42.680;23.364;2023-04-05T00:28:11;94630.00;;;2.21;93.46
5691;BME280;2870;42.680;23.364;2023-04-05T00:30:38;94641.72;;;2.02;92.44
5691;BME280;2870;42.680;23.364;2023-04-05T00:33:05;94640.09;;;1.88;93.68
5691;BME280;2870;42.680;23.364;2023-04-05T00:35:31;94634.13;;;2.08;93.27
5691;BME280;2870;42.680;23.364;2023-04-05T00:37:58;94644.41;;;2.13;92.96
5691;BME280;2870;42.680;23.364;2023-04-05T00:40:25;94646.91;;;1.81;91.63
5691;BME280;2870;42.680;23.364;2023-04-05T00:42:53;94645.81;;;2.26;91.67
5691;BME280;2870;42.680;23.364;2023-04-05T00:45:20;94651.84;;;1.94;91.06
5691;BME280;2870;42.680;23.364;2023-04-05T00:47:47;94649.63;;;2.23;91.89
5691;BME280;2870;42.680;23.364;2023-04-05T00:50:15;94652.84;;;1.97;91.81
5691;BME280;2870;42.680;23.364;2023-04-05T00:52:42;94643.88;;;1.85;92.11
5691;BME280;2870;42.680;23.364;2023-04-05T00:55:10;94652.16;;;1.49;92.32
5691;BME280;2870;42.680;23.364;2023-04-05T00:57:37;94639.31;;;1.52;92.48
5691;BME280;2870;42.680;23.364;2023-04-05T01:00:07;94646.47;;;2.07;92.15
5691;BME280;2870;42.680;23.364;2023-04-05T01:02:40;94649.47;;;2.09;92.34
5691;BME280;2870;42.680;23.364;2023-04-05T01:05:20;94643.31;;;1.92;91.32
5691;BME280;2870;42.680;23.364;2023-04-05T01:07:55;94648.38;;;1.88;91.40
5691;BME280;2870;42.680;23.364;2023-04-05T01:10:29;94642.06;;;1.93;91.18
5691;BME280;2870;42.680;23.364;2023-04-05T01:12:58;94650.66;;;1.84;92.23
5691;BME280;2870;42.680;23.364;2023-04-05T01:15:26;94654.69;;;1.83;91.05
5691;BME280;2870;42.680;23.364;2023-04-05T01:17:53;94657.47;;;2.13;91.33
5691;BME280;2870;42.680;23.364;2023-04-05T01:20:22;94649.97;;;1.78;91.84
5691;BME280;2870;42.680;23.364;2023-04-05T01:23:19;94649.53;;;1.63;91.52
5691;BME280;2870;42.680;23.364;2023-04-05T01:29:02;94654.75;;;2.07;91.16
5691;BME280;2870;42.680;23.364;2023-04-05T01:31:41;94657.53;;;2.07;89.79
5691;BME280;2870;42.680;23.364;2023-04-05T01:34:17;94653.84;;;2.29;89.29
5691;BME280;2870;42.680;23.364;2023-04-05T01:36:50;94661.59;;;2.01;90.95
5691;BME280;2870;42.680;23.364;2023-04-05T01:39:20;94650.63;;;2.20;91.38
5691;BME280;2870;42.680;23.364;2023-04-05T01:41:48;94658.31;;;2.62;89.81
5691;BME280;2870;42.680;23.364;2023-04-05T01:44:15;94651.50;;;2.39;87.39
5691;BME280;2870;42.680;23.364;2023-04-05T01:46:43;94657.38;;;2.54;88.47
5691;BME280;2870;42.680;23.364;2023-04-05T01:49:10;94661.50;;;2.42;87.95
5691;BME280;2870;42.680;23.364;2023-04-05T01:51:37;94667.72;;;1.94;89.55
5691;BME280;2870;42.680;23.364;2023-04-05T01:54:06;94664.63;;;1.62;90.16
5691;BME280;2870;42.680;23.364;2023-04-05T01:56:33;94657.38;;;1.94;90.25
5691;BME280;2870;42.680;23.364;2023-04-05T01:59:00;94658.63;;;1.99;88.85
5691;BME280;2870;42.680;23.364;2023-04-05T02:01:27;94660.47;;;1.85;90.91
5691;BME280;2870;42.680;23.364;2023-04-05T02:03:55;94654.88;;;1.91;89.83
5691;BME280;2870;42.680;23.364;2023-04-05T02:06:22;94657.66;;;1.91;90.31
5691;BME280;2870;42.680;23.364;2023-04-05T02:08:50;94660.53;;;2.09;89.39
5691;BME280;2870;42.680;23.364;2023-04-05T02:11:17;94667.75;;;2.18;90.64
5691;BME280;2870;42.680;23.364;2023-04-05T02:13:44;94666.47;;;1.89;88.16
5691;BME280;2870;42.680;23.364;2023-04-05T02:16:10;94667.25;;;1.48;89.76
5691;BME280;2870;42.680;23.364;2023-04-05T02:18:37;94669.03;;;1.81;90.11
5691;BME280;2870;42.680;23.364;2023-04-05T02:21:07;94663.84;;;2.02;88.18
5691;BME280;2870;42.680;23.364;2023-04-05T02:23:35;94667.06;;;2.12;89.01
5691;BME280;2870;42.680;23.364;2023-04-05T02:26:03;94672.28;;;1.44;89.74
5691;BME280;2870;42.680;23.364;2023-04-05T02:28:30;94675.66;;;1.20;90.92
5691;BME280;2870;42.680;23.364;2023-04-05T02:30:57;94659.22;;;1.39;91.19
5691;BME280;2870;42.680;23.364;2023-04-05T02:33:23;94672.63;;;1.24;91.31
5691;BME280;2870;42.680;23.364;2023-04-05T02:35:52;94657.13;;;1.10;92.46
5691;BME280;2870;42.680;23.364;2023-04-05T02:38:20;94639.22;;;1.22;90.90
5691;BME280;2870;42.680;23.364;2023-04-05T02:40:48;94664.13;;;1.11;91.81
5691;BME280;2870;42.680;23.364;2023-04-05T02:43:15;94658.34;;;1.20;93.38
5691;BME280;2870;42.680;23.364;2023-04-05T02:45:42;94658.81;;;1.18;91.44
5691;BME280;2870;42.680;23.364;2023-04-05T02:48:08;94655.38;;;1.06;92.95
5691;BME280;2870;42.680;23.364;2023-04-05T02:50:35;94655.72;;;1.80;91.89
5691;BME280;2870;42.680;23.364;2023-04-05T02:53:02;94660.59;;;1.63;91.07
5691;BME280;2870;42.680;23.364;2023-04-05T02:55:31;94657.84;;;1.16;91.60
5691;BME280;2870;42.680;23.364;2023-04-05T02:57:58;94654.19;;;1.43;92.60
5691;BME280;2870;42.680;23.364;2023-04-05T03:00:26;94656.84;;;1.08;92.67
5691;BME280;2870;42.680;23.364;2023-04-05T03:02:53;94661.72;;;1.48;92.28
5691;BME280;2870;42.680;23.364;2023-04-05T03:05:21;94662.72;;;0.93;92.98
5691;BME280;2870;42.680;23.364;2023-04-05T03:07:48;94662.72;;;1.45;93.94
5691;BME280;2870;42.680;23.364;2023-04-05T03:10:16;94658.16;;;1.53;93.29
5691;BME280;2870;42.680;23.364;2023-04-05T03:12:45;94670.16;;;1.15;93.11
5691;BME280;2870;42.680;23.364;2023-04-05T03:15:11;94655.56;;;1.67;93.49
5691;BME280;2870;42.680;23.364;2023-04-05T03:17:38;94657.25;;;1.75;91.73
5691;BME280;2870;42.680;23.364;2023-04-05T03:20:10;94653.50;;;1.31;91.03
5691;BME280;2870;42.680;23.364;2023-04-05T03:22:36;94659.47;;;1.82;91.44
5691;BME280;2870;42.680;23.364;2023-04-05T03:25:04;94655.63;;;1.55;91.21
5691;BME280;2870;42.680;23.364;2023-04-05T03:27:31;94653.50;;;1.73;91.48
5691;BME280;2870;42.680;23.364;2023-04-05T03:30:00;94667.88;;;1.13;93.30
5691;BME280;2870;42.680;23.364;2023-04-05T03:32:27;94664.69;;;1.03;93.94
5691;BME280;2870;42.680;23.364;2023-04-05T03:34:53;94658.22;;;1.42;94.07
5691;BME280;2870;42.680;23.364;2023-04-05T03:37:21;94659.66;;;1.54;91.80
5691;BME280;2870;42.680;23.364;2023-04-05T03:39:47;94658.81;;;1.24;93.48
5691;BME280;2870;42.680;23.364;2023-04-05T03:42:14;94660.25;;;1.36;93.17
5691;BME280;2870;42.680;23.364;2023-04-05T03:44:42;94667.25;;;1.48;93.04
5691;BME280;2870;42.680;23.364;2023-04-05T03:47:10;94667.41;;;1.62;92.36
5691;BME280;2870;42.680;23.364;2023-04-05T03:49:37;94670.09;;;1.73;93.51
5691;BME280;2870;42.680;23.364;2023-04-05T03:52:05;94665.47;;;1.86;92.47
5691;BME280;2870;42.680;23.364;2023-04-05T03:54:32;94677.63;;;1.31;93.17
5691;BME280;2870;42.680;23.364;2023-04-05T03:57:00;94686.34;;;1.41;93.86
5691;BME280;2870;42.680;23.364;2023-04-05T03:59:27;94658.81;;;1.24;94.95
5691;BME280;2870;42.680;23.364;2023-04-05T04:01:54;94682.78;;;1.51;95.06
5691;BME280;2870;42.680;23.364;2023-04-05T04:04:22;94692.81;;;0.91;97.43
5691;BME280;2870;42.680;23.364;2023-04-05T04:06:49;94690.47;;;1.23;99.74
5691;BME280;2870;42.680;23.364;2023-04-05T04:09:16;94692.44;;;1.28;100.00
5691;BME280;2870;42.680;23.364;2023-04-05T04:11:43;94691.03;;;1.04;100.00
5691;BME280;2870;42.680;23.364;2023-04-05T04:14:09;94690.03;;;0.96;100.00
5691;BME280;2870;42.680;23.364;2023-04-05T04:16:36;94689.16;;;1.29;100.00
5691;BME280;2870;42.680;23.364;2023-04-05T04:19:03;94690.34;;;0.87;99.34
5691;BME280;2870;42.680;23.364;2023-04-05T04:21:31;94698.06;;;1.05;99.57
5691;BME280;2870;42.680;23.364;2023-04-05T04:24:00;94690.44;;;1.28;99.46
5691;BME280;2870;42.680;23.364;2023-04-05T04:26:27;94691.53;;;1.09;98.57
5691;BME280;2870;42.680;23.364;2023-04-05T04:28:54;94696.31;;;1.02;100.00
5691;BME280;2870;42.680;23.364;2023-04-05T04:31:21;94687.69;;;1.23;99.07
5691;BME280;2870;42.680;23.364;2023-04-05T04:33:48;94695.00;;;1.20;98.60
5691;BME280;2870;42.680;23.364;2023-04-05T04:36:16;94691.28;;;1.06;98.86
5691;BME280;2870;42.680;23.364;2023-04-05T04:39:01;94692.69;;;1.30;98.98
5691;BME280;2870;42.680;23.364;2023-04-05T04:41:30;94697.06;;;1.09;99.13
5691;BME280;2870;42.680;23.364;2023-04-05T04:43:58;94689.09;;;1.46;99.22
5691;BME280;2870;42.680;23.364;2023-04-05T04:46:27;94699.16;;;1.44;98.45
5691;BME280;2870;42.680;23.364;2023-04-05T04:48:59;94702.50;;;1.31;98.22
5691;BME280;2870;42.680;23.364;2023-04-05T04:51:30;94701.78;;;1.19;98.53
5691;BME280;2870;42.680;23.364;2023-04-05T04:53:56;94702.72;;;1.33;98.96
5691;BME280;2870;42.680;23.364;2023-04-05T04:56:25;94698.75;;;1.23;98.48
5691;BME280;2870;42.680;23.364;2023-04-05T04:58:53;94692.53;;;1.05;97.83
5691;BME280;2870;42.680;23.364;2023-04-05T05:01:20;94701.78;;;1.72;97.10
5691;BME280;2870;42.680;23.364;2023-04-05T05:03:49;94701.47;;;1.81;96.46
5691;BME280;2870;42.680;23.364;2023-04-05T05:06:16;94694.53;;;1.63;95.46
5691;BME280;2870;42.680;23.364;2023-04-05T05:08:44;94701.00;;;1.77;94.74
5691;BME280;2870;42.680;23.364;2023-04-05T05:11:11;94703.25;;;1.31;94.57
5691;BME280;2870;42.680;23.364;2023-04-05T05:13:40;94705.66;;;1.52;96.01
5691;BME280;2870;42.680;23.364;2023-04-05T05:16:07;94704.16;;;1.51;95.44
5691;BME280;2870;42.680;23.364;2023-04-05T05:18:34;94707.31;;;1.72;93.83
5691;BME280;2870;42.680;23.364;2023-04-05T05:21:01;94708.22;;;1.39;93.36
5691;BME280;2870;42.680;23.364;2023-04-05T05:23:28;94713.09;;;1.16;94.33
5691;BME280;2870;42.680;23.364;2023-04-05T05:25:57;94706.38;;;1.00;94.79
5691;BME280;2870;42.680;23.364;2023-04-05T05:28:24;94718.09;;;1.23;94.85
5691;BME280;2870;42.680;23.364;2023-04-05T05:30:53;94713.31;;;1.23;93.37
5691;BME280;2870;42.680;23.364;2023-04-05T05:33:20;94724.16;;;1.10;93.26
5691;BME280;2870;42.680;23.364;2023-04-05T05:35:47;94711.03;;;1.27;93.97
5691;BME280;2870;42.680;23.364;2023-04-05T05:38:14;94717.56;;;1.30;92.92
5691;BME280;2870;42.680;23.364;2023-04-05T05:40:41;94714.31;;;1.26;93.63
5691;BME280;2870;42.680;23.364;2023-04-05T05:43:07;94715.22;;;1.45;93.91
5691;BME280;2870;42.680;23.364;2023-04-05T05:45:35;94705.66;;;1.46;93.10
5691;BME280;2870;42.680;23.364;2023-04-05T05:48:04;94711.69;;;1.50;93.58
5691;BME280;2870;42.680;23.364;2023-04-05T05:50:31;94701.78;;;1.72;92.81
5691;BME280;2870;42.680;23.364;2023-04-05T05:52:58;94713.09;;;1.68;92.71
5691;BME280;2870;42.680;23.364;2023-04-05T05:55:25;94705.19;;;1.89;92.63
5691;BME280;2870;42.680;23.364;2023-04-05T05:57:52;94704.91;;;1.93;91.69
5691;BME280;2870;42.680;23.364;2023-04-05T06:00:19;94701.97;;;2.15;90.52
5691;BME280;2870;42.680;23.364;2023-04-05T06:02:47;94701.78;;;2.07;89.84
5691;BME280;2870;42.680;23.364;2023-04-05T06:05:16;94704.00;;;2.15;89.75
5691;BME280;2870;42.680;23.364;2023-04-05T06:07:43;94705.31;;;2.38;87.05
5691;BME280;2870;42.680;23.364;2023-04-05T06:10:10;94714.84;;;2.12;87.03
5691;BME280;2870;42.680;23.364;2023-04-05T06:12:37;94708.34;;;2.40;86.43
5691;BME280;2870;42.680;23.364;2023-04-05T06:15:05;94712.94;;;2.86;85.06
5691;BME280;2870;42.680;23.364;2023-04-05T06:17:32;94719.00;;;1.95;85.78
5691;BME280;2870;42.680;23.364;2023-04-05T06:20:08;94719.03;;;2.55;86.03
5691;BME280;2870;42.680;23.364;2023-04-05T06:22:37;94723.84;;;2.19;85.25
5691;BME280;2870;42.680;23.364;2023-04-05T06:25:06;94725.31;;;2.85;85.03
5691;BME280;2870;42.680;23.364;2023-04-05T06:27:33;94732.44;;;2.75;83.38
5691;BME280;2870;42.680;23.364;2023-04-05T06:30:00;94727.28;;;2.30;84.75
5691;BME280;2870;42.680;23.364;2023-04-05T06:32:27;94730.00;;;2.96;83.43
5691;BME280;2870;42.680;23.364;2023-04-05T06:34:53;94727.66;;;3.25;83.82
5691;BME280;2870;42.680;23.364;2023-04-05T06:37:20;94734.91;;;3.52;80.49
5691;BME280;2870;42.680;23.364;2023-04-05T06:39:48;94737.00;;;3.22;80.59
5691;BME280;2870;42.680;23.364;2023-04-05T06:42:15;94736.19;;;2.48;82.91
5691;BME280;2870;42.680;23.364;2023-04-05T06:44:43;94743.25;;;2.49;83.24
5691;BME280;2870;42.680;23.364;2023-04-05T06:47:10;94746.00;;;3.52;83.23
5691;BME280;2870;42.680;23.364;2023-04-05T06:49:37;94744.06;;;3.23;82.31
5691;BME280;2870;42.680;23.364;2023-04-05T06:52:04;94744.19;;;3.36;81.91
5691;BME280;2870;42.680;23.364;2023-04-05T06:54:32;94732.63;;;3.32;80.56
5691;BME280;2870;42.680;23.364;2023-04-05T06:57:00;94753.06;;;3.53;80.79
5691;BME280;2870;42.680;23.364;2023-04-05T06:59:27;94759.03;;;3.57;80.45
5691;BME280;2870;42.680;23.364;2023-04-05T07:01:54;94765.63;;;3.54;79.44
5691;BME280;2870;42.680;23.364;2023-04-05T07:04:21;94776.63;;;4.22;78.21
5691;BME280;2870;42.680;23.364;2023-04-05T07:06:47;94769.91;;;4.49;75.52
5691;BME280;2870;42.680;23.364;2023-04-05T07:09:15;94734.03;;;4.01;74.96
5691;BME280;2870;42.680;23.364;2023-04-05T07:11:42;94781.72;;;4.69;76.12
5691;BME280;2870;42.680;23.364;2023-04-05T07:14:10;94771.88;;;5.00;74.09
5691;BME280;2870;42.680;23.364;2023-04-05T07:16:37;94772.47;;;4.79;74.13
5691;BME280;2870;42.680;23.364;2023-04-05T07:19:04;94777.25;;;4.47;74.25
5691;BME280;2870;42.680;23.364;2023-04-05T07:21:31;94784.19;;;4.40;76.33
5691;BME280;2870;42.680;23.364;2023-04-05T07:23:58;94782.72;;;4.71;72.20
5691;BME280;2870;42.680;23.364;2023-04-05T07:26:26;94788.53;;;4.55;73.71
5691;BME280;2870;42.680;23.364;2023-04-05T07:28:53;94786.44;;;4.42;73.59
5691;BME280;2870;42.680;23.364;2023-04-05T07:31:21;94785.84;;;4.49;74.00
5691;BME280;2870;42.680;23.364;2023-04-05T07:33:48;94793.63;;;4.50;73.22
5691;BME280;2870;42.680;23.364;2023-04-05T07:36:15;94787.72;;;4.41;73.28
5691;BME280;2870;42.680;23.364;2023-04-05T07:38:42;94787.38;;;4.63;72.08
5691;BME280;2870;42.680;23.364;2023-04-05T07:41:09;94794.91;;;4.49;72.11
5691;BME280;2870;42.680;23.364;2023-04-05T07:43:36;94798.97;;;4.30;73.26
5691;BME280;2870;42.680;23.364;2023-04-05T07:46:03;94791.34;;;3.98;73.41
5691;BME280;2870;42.680;23.364;2023-04-05T07:48:32;94792.28;;;3.82;72.59
5691;BME280;2870;42.680;23.364;2023-04-05T07:51:03;94805.50;;;3.94;74.52
5691;BME280;2870;42.680;23.364;2023-04-05T07:53:31;94809.09;;;3.46;75.05
5691;BME280;2870;42.680;23.364;2023-04-05T07:56:02;94804.31;;;3.47;74.92
5691;BME280;2870;42.680;23.364;2023-04-05T07:58:29;94807.38;;;3.86;74.89
5691;BME280;2870;42.680;23.364;2023-04-05T08:00:58;94810.00;;;4.16;74.48
5691;BME280;2870;42.680;23.364;2023-04-05T08:03:25;94814.78;;;3.97;73.69
5691;BME280;2870;42.680;23.364;2023-04-05T08:05:53;94820.81;;;4.01;74.18
5691;BME280;2870;42.680;23.364;2023-04-05T08:08:20;94820.41;;;4.48;74.13
5691;BME280;2870;42.680;23.364;2023-04-05T08:10:47;94824.50;;;4.09;73.20
5691;BME280;2870;42.680;23.364;2023-04-05T08:13:14;94819.53;;;4.02;74.24
5691;BME280;2870;42.680;23.364;2023-04-05T08:15:41;94828.97;;;3.93;74.74
5691;BME280;2870;42.680;23.364;2023-04-05T08:18:08;94822.44;;;3.91;75.34
5691;BME280;2870;42.680;23.364;2023-04-05T08:20:37;94825.03;;;4.27;73.64
5691;BME280;2870;42.680;23.364;2023-04-05T08:23:06;94825.19;;;4.15;73.66
5691;BME280;2870;42.680;23.364;2023-04-05T08:25:33;94836.63;;;4.25;74.16
5691;BME280;2870;42.680;23.364;2023-04-05T08:28:00;94833.25;;;4.13;73.76
5691;BME280;2870;42.680;23.364;2023-04-05T08:30:27;94830.59;;;3.83;74.23
5691;BME280;2870;42.680;23.364;2023-04-05T08:32:53;94831.16;;;4.19;74.44
5691;BME280;2870;42.680;23.364;2023-04-05T08:35:20;94841.97;;;4.42;73.27
5691;BME280;2870;42.680;23.364;2023-04-05T08:37:47;94836.50;;;4.36;73.62
5691;BME280;2870;42.680;23.364;2023-04-05T08:40:15;94838.78;;;4.89;72.85
5691;BME280;2870;42.680;23.364;2023-04-05T08:42:45;94841.69;;;4.27;72.96
5691;BME280;2870;42.680;23.364;2023-04-05T08:45:18;94839.88;;;4.29;75.70
5691;BME280;2870;42.680;23.364;2023-04-05T08:47:48;94849.03;;;4.43;75.27
5691;BME280;2870;42.680;23.364;2023-04-05T08:50:17;94839.28;;;4.55;73.87
5691;BME280;2870;42.680;23.364;2023-04-05T08:52:45;94838.94;;;4.02;74.98
5691;BME280;2870;42.680;23.364;2023-04-05T08:55:16;94853.16;;;4.17;77.03
5691;BME280;2870;42.680;23.364;2023-04-05T08:57:44;94852.13;;;4.20;75.18
5691;BME280;2870;42.680;23.364;2023-04-05T09:00:17;94859.38;;;4.42;74.15
5691;BME280;2870;42.680;23.364;2023-04-05T09:02:46;94863.16;;;4.45;73.23
5691;BME280;2870;42.680;23.364;2023-04-05T09:05:15;94864.44;;;4.44;74.39
5691;BME280;2870;42.680;23.364;2023-04-05T09:07:45;94847.13;;;4.13;75.55
5691;BME280;2870;42.680;23.364;2023-04-05T09:10:14;94868.31;;;4.35;76.06
5691;BME280;2870;42.680;23.364;2023-04-05T09:12:44;94867.97;;;4.01;76.95
5691;BME280;2870;42.680;23.364;2023-04-05T09:15:11;94863.22;;;4.39;77.35
5691;BME280;2870;42.680;23.364;2023-04-05T09:17:40;94865.31;;;5.03;77.44
5691;BME280;2870;42.680;23.364;2023-04-05T09:20:08;94872.47;;;4.98;72.96
5691;BME280;2870;42.680;23.364;2023-04-05T09:22:42;94871.72;;;4.98;72.50
5691;BME280;2870;42.680;23.364;2023-04-05T09:25:09;94872.66;;;4.68;72.91
5691;BME280;2870;42.680;23.364;2023-04-05T09:27:53;94874.25;;;4.83;73.82
5691;BME280;2870;42.680;23.364;2023-04-05T09:30:21;94877.47;;;4.68;73.53
5691;BME280;2870;42.680;23.364;2023-04-05T09:32:50;94859.19;;;5.23;72.19
5691;BME280;2870;42.680;23.364;2023-04-05T09:35:18;94861.09;;;4.83;70.34
5691;BME280;2870;42.680;23.364;2023-04-05T09:37:50;94862.81;;;4.86;70.75
5691;BME280;2870;42.680;23.364;2023-04-05T09:40:19;94863.13;;;5.15;70.10
5691;BME280;2870;42.680;23.364;2023-04-05T09:42:48;94853.84;;;5.25;71.25
5691;BME280;2870;42.680;23.364;2023-04-05T09:45:15;94848.44;;;5.59;74.71
5691;BME280;2870;42.680;23.364;2023-04-05T09:47:53;94856.78;;;5.73;67.37
5691;BME280;2870;42.680;23.364;2023-04-05T09:50:20;94847.00;;;5.26;68.51
5691;BME280;2870;42.680;23.364;2023-04-05T09:52:47;94855.41;;;5.53;67.46
5691;BME280;2870;42.680;23.364;2023-04-05T09:55:25;94854.38;;;5.96;67.24
5691;BME280;2870;42.680;23.364;2023-04-05T09:57:53;94859.81;;;6.75;64.55
5691;BME280;2870;42.680;23.364;2023-04-05T10:00:21;94865.91;;;7.08;62.60
5691;BME280;2870;42.680;23.364;2023-04-05T10:02:52;94858.47;;;6.89;62.82
5691;BME280;2870;42.680;23.364;2023-04-05T10:05:22;94862.03;;;5.90;64.64
5691;BME280;2870;42.680;23.364;2023-04-05T10:07:50;94857.44;;;6.32;64.93
5691;BME280;2870;42.680;23.364;2023-04-05T10:10:17;94863.00;;;7.34;62.26
5691;BME280;2870;42.680;23.364;2023-04-05T10:12:45;94865.28;;;6.20;61.77
5691;BME280;2870;42.680;23.364;2023-04-05T10:15:15;94859.69;;;6.81;60.82
5691;BME280;2870;42.680;23.364;2023-04-05T10:17:46;94868.63;;;7.42;59.74
5691;BME280;2870;42.680;23.364;2023-04-05T10:20:16;94866.66;;;6.74;58.78
5691;BME280;2870;42.680;23.364;2023-04-05T10:22:58;94862.16;;;7.96;57.71
5691;BME280;2870;42.680;23.364;2023-04-05T10:25:32;94855.78;;;8.17;54.53
5691;BME280;2870;42.680;23.364;2023-04-05T10:28:03;94874.81;;;7.69;54.65
5691;BME280;2870;42.680;23.364;2023-04-05T10:30:35;94865.66;;;7.40;56.40
5691;BME280;2870;42.680;23.364;2023-04-05T10:33:10;94868.72;;;8.35;56.99
5691;BME280;2870;42.680;23.364;2023-04-05T10:35:49;94867.59;;;8.02;55.59
5691;BME280;2870;42.680;23.364;2023-04-05T10:38:23;94866.56;;;7.63;58.54
5691;BME280;2870;42.680;23.364;2023-04-05T10:40:53;94873.91;;;8.03;57.09
5691;BME280;2870;42.680;23.364;2023-04-05T10:43:24;94870.91;;;8.65;56.97
5691;BME280;2870;42.680;23.364;2023-04-05T10:45:53;94869.03;;;7.67;56.39
5691;BME280;2870;42.680;23.364;2023-04-05T10:48:30;94867.78;;;8.04;55.69
5691;BME280;2870;42.680;23.364;2023-04-05T10:51:00;94876.44;;;7.02;58.48
5691;BME280;2870;42.680;23.364;2023-04-05T10:53:29;94873.06;;;6.35;59.51
5691;BME280;2870;42.680;23.364;2023-04-05T10:55:56;94877.19;;;6.21;60.03
5691;BME280;2870;42.680;23.364;2023-04-05T10:58:25;94878.59;;;6.61;60.21
5691;BME280;2870;42.680;23.364;2023-04-05T11:00:54;94880.59;;;6.74;59.25
5691;BME280;2870;42.680;23.364;2023-04-05T11:03:41;94879.59;;;6.64;58.34
5691;BME280;2870;42.680;23.364;2023-04-05T11:06:17;94880.22;;;6.70;61.60
5691;BME280;2870;42.680;23.364;2023-04-05T11:08:45;94890.38;;;6.68;60.03
5691;BME280;2870;42.680;23.364;2023-04-05T11:11:15;94883.81;;;6.78;58.83
5691;BME280;2870;42.680;23.364;2023-04-05T11:13:52;94886.88;;;6.54;58.97
5691;BME280;2870;42.680;23.364;2023-04-05T11:16:22;94890.41;;;7.23;59.35
5691;BME280;2870;42.680;23.364;2023-04-05T11:18:51;94874.44;;;6.55;58.79
5691;BME280;2870;42.680;23.364;2023-04-05T11:21:23;94884.81;;;7.02;58.92
5691;BME280;2870;42.680;23.364;2023-04-05T11:24:01;94884.91;;;6.75;58.22
5691;BME280;2870;42.680;23.364;2023-04-05T11:26:32;94882.13;;;7.09;56.93
5691;BME280;2870;42.680;23.364;2023-04-05T11:28:59;94885.38;;;7.21;57.41
5691;BME280;2870;42.680;23.364;2023-04-05T11:31:28;94880.66;;;6.61;58.29
5691;BME280;2870;42.680;23.364;2023-04-05T11:33:58;94886.09;;;7.01;58.86
5691;BME280;2870;42.680;23.364;2023-04-05T11:36:38;94885.59;;;6.55;58.79
5691;BME280;2870;42.680;23.364;2023-04-05T11:39:25;94882.41;;;6.37;58.37
5691;BME280;2870;42.680;23.364;2023-04-05T11:41:54;94887.19;;;6.50;58.88
5691;BME280;2870;42.680;23.364;2023-04-05T11:44:22;94875.63;;;6.46;57.80
5691;BME280;2870;42.680;23.364;2023-04-05T11:46:50;94876.09;;;6.24;58.50
5691;BME280;2870;42.680;23.364;2023-04-05T11:49:18;94878.13;;;6.84;59.78
5691;BME280;2870;42.680;23.364;2023-04-05T11:51:47;94875.78;;;7.51;57.16
5691;BME280;2870;42.680;23.364;2023-04-05T11:54:27;94878.97;;;6.92;56.07
5691;BME280;2870;42.680;23.364;2023-04-05T11:56:54;94873.63;;;6.47;59.16
5691;BME280;2870;42.680;23.364;2023-04-05T11:59:27;94871.25;;;6.37;57.95
5691;BME280;2870;42.680;23.364;2023-04-05T12:01:59;94873.66;;;6.68;58.39
5691;BME280;2870;42.680;23.364;2023-04-05T12:04:26;94871.81;;;6.09;59.01
5691;BME280;2870;42.680;23.364;2023-04-05T12:07:13;94879.81;;;6.53;61.13
5691;BME280;2870;42.680;23.364;2023-04-05T12:10:03;94881.72;;;6.58;59.31
5691;BME280;2870;42.680;23.364;2023-04-05T12:12:33;94885.84;;;6.17;59.37
5691;BME280;2870;42.680;23.364;2023-04-05T12:15:01;94874.72;;;6.04;61.20
5691;BME280;2870;42.680;23.364;2023-04-05T12:17:40;94886.88;;;6.41;61.47
5691;BME280;2870;42.680;23.364;2023-04-05T12:20:09;94886.25;;;6.34;62.02
5691;BME280;2870;42.680;23.364;2023-04-05T12:22:36;94873.69;;;6.54;63.94
5691;BME280;2870;42.680;23.364;2023-04-05T12:25:04;94877.91;;;6.34;60.88
5691;BME280;2870;42.680;23.364;2023-04-05T12:27:31;94862.72;;;6.35;62.68
5691;BME280;2870;42.680;23.364;2023-04-05T12:30:09;94874.19;;;6.66;61.14
5691;BME280;2870;42.680;23.364;2023-04-05T12:32:41;94870.78;;;6.94;60.51
5691;BME280;2870;42.680;23.364;2023-04-05T12:35:15;94878.91;;;7.05;60.42
5691;BME280;2870;42.680;23.364;2023-04-05T12:37:42;94877.56;;;6.85;61.57
5691;BME280;2870;42.680;23.364;2023-04-05T12:40:10;94874.50;;;7.10;60.01
5691;BME280;2870;42.680;23.364;2023-04-05T12:42:38;94872.84;;;7.77;61.06
5691;BME280;2870;42.680;23.364;2023-04-05T12:45:08;94875.88;;;6.82;59.92
5691;BME280;2870;42.680;23.364;2023-04-05T12:47:48;94865.56;;;6.43;61.93
5691;BME280;2870;42.680;23.364;2023-04-05T12:50:17;94877.97;;;7.44;59.39
5691;BME280;2870;42.680;23.364;2023-04-05T12:52:51;94874.78;;;6.85;61.95
5691;BME280;2870;42.680;23.364;2023-04-05T12:55:18;94881.38;;;6.61;60.56
5691;BME280;2870;42.680;23.364;2023-04-05T12:57:48;94884.13;;;6.01;63.51
5691;BME280;2870;42.680;23.364;2023-04-05T13:00:16;94880.13;;;5.56;64.10
5691;BME280;2870;42.680;23.364;2023-04-05T13:02:49;94880.59;;;6.27;62.69
5691;BME280;2870;42.680;23.364;2023-04-05T13:05:18;94882.31;;;6.17;61.98
5691;BME280;2870;42.680;23.364;2023-04-05T13:07:45;94881.78;;;5.92;62.06
5691;BME280;2870;42.680;23.364;2023-04-05T13:10:12;94883.47;;;5.81;60.98
5691;BME280;2870;42.680;23.364;2023-04-05T13:12:39;94892.69;;;6.29;60.46
5691;BME280;2870;42.680;23.364;2023-04-05T13:15:07;94876.31;;;5.99;60.43
5691;BME280;2870;42.680;23.364;2023-04-05T13:17:34;94884.25;;;6.08;61.56
5691;BME280;2870;42.680;23.364;2023-04-05T13:20:02;94885.84;;;6.17;62.60
5691;BME280;2870;42.680;23.364;2023-04-05T13:22:29;94877.34;;;5.70;60.95
5691;BME280;2870;42.680;23.364;2023-04-05T13:24:56;94879.09;;;5.99;63.95
5691;BME280;2870;42.680;23.364;2023-04-05T13:27:24;94880.06;;;6.42;61.75
5691;BME280;2870;42.680;23.364;2023-04-05T13:29:50;94884.97;;;5.82;60.43
5691;BME280;2870;42.680;23.364;2023-04-05T13:32:17;94876.22;;;5.92;61.52
5691;BME280;2870;42.680;23.364;2023-04-05T13:34:44;94871.53;;;6.60;61.66